sensor_id;sensor_type;location;lat;lon;timestamp;P1;durP1;ratioP1;P2;durP2;ratioP2
9310;SDS011;4694;52.464;13.480;2022-07-04T00:02:07;2.50;;;2.30;;
9310;SDS011;4694;52.464;13.480;2022-07-04T00:04:35;5.68;;;2.28;;
9310;SDS011;4694;52.464;13.480;2022-07-04T00:07:02;6.38;;;2.65;;
9310;SDS011;4694;52.464;13.480;2022-07-04T00:09:30;3.10;;;2.05;;
9310;SDS011;4694;52.464;13.480;2022-07-04T00:11:59;4.27;;;2.80;;
9310;SDS011;4694;52.464;13.480;2022-07-04T00:14:26;2.65;;;1.90;;
9310;SDS011;4694;52.464;13.480;2022-07-04T00:16:54;6.93;;;2.78;;
9310;SDS011;4694;52.464;13.480;2022-07-04T00:19:21;3.15;;;2.30;;
9310;SDS011;4694;52.464;13.480;2022-07-04T00:21:48;2.42;;;2.20;;
9310;SDS011;4694;52.464;13.480;2022-07-04T00:24:15;4.88;;;2.42;;
9310;SDS011;4694;52.464;13.480;2022-07-04T00:26:43;2.83;;;2.10;;
9310;SDS011;4694;52.464;13.480;2022-07-04T00:29:10;4.45;;;2.28;;
9310;SDS011;4694;52.464;13.480;2022-07-04T00:31:37;3.08;;;1.77;;
9310;SDS011;4694;52.464;13.480;2022-07-04T00:34:06;4.32;;;2.25;;
9310;SDS011;4694;52.464;13.480;2022-07-04T00:36:33;2.63;;;2.03;;
9310;SDS011;4694;52.464;13.480;2022-07-04T00:38:59;2.65;;;2.17;;
9310;SDS011;4694;52.464;13.480;2022-07-04T00:41:27;2.88;;;2.33;;
9310;SDS011;4694;52.464;13.480;2022-07-04T00:44:00;1.70;;;1.60;;
9310;SDS011;4694;52.464;13.480;2022-07-04T00:46:32;2.90;;;1.73;;
9310;SDS011;4694;52.464;13.480;2022-07-04T00:49:00;2.45;;;2.15;;
9310;SDS011;4694;52.464;13.480;2022-07-04T00:51:31;2.47;;;2.00;;
9310;SDS011;4694;52.464;13.480;2022-07-04T00:53:58;2.22;;;1.73;;
9310;SDS011;4694;52.464;13.480;2022-07-04T00:56:28;4.57;;;1.83;;
9310;SDS011;4694;52.464;13.480;2022-07-04T00:58:58;1.90;;;1.80;;
9310;SDS011;4694;52.464;13.480;2022-07-04T01:01:25;1.77;;;1.67;;
9310;SDS011;4694;52.464;13.480;2022-07-04T01:03:54;4.43;;;2.15;;
9310;SDS011;4694;52.464;13.480;2022-07-04T01:06:21;2.63;;;1.90;;
9310;SDS011;4694;52.464;13.480;2022-07-04T01:08:50;1.85;;;1.70;;
9310;SDS011;4694;52.464;13.480;2022-07-04T01:11:17;4.22;;;1.92;;
9310;SDS011;4694;52.464;13.480;2022-07-04T01:13:45;3.13;;;1.70;;
9310;SDS011;4694;52.464;13.480;2022-07-04T01:16:12;2.75;;;2.33;;
9310;SDS011;4694;52.464;13.480;2022-07-04T01:18:39;2.55;;;2.00;;
9310;SDS011;4694;52.464;13.480;2022-07-04T01:21:12;3.35;;;1.80;;
9310;SDS011;4694;52.464;13.480;2022-07-04T01:23:40;2.92;;;2.20;;
9310;SDS011;4694;52.464;13.480;2022-07-04T01:26:07;1.92;;;1.83;;
9310;SDS011;4694;52.464;13.480;2022-07-04T01:28:35;2.17;;;1.98;;
9310;SDS011;4694;52.464;13.480;2022-07-04T01:31:07;2.58;;;1.85;;
9310;SDS011;4694;52.464;13.480;2022-07-04T01:33:34;2.78;;;2.55;;
9310;SDS011;4694;52.464;13.480;2022-07-04T01:36:01;5.03;;;2.25;;
9310;SDS011;4694;52.464;13.480;2022-07-04T01:38:30;2.10;;;2.00;;
9310;SDS011;4694;52.464;13.480;2022-07-04T01:40:57;2.08;;;1.60;;
9310;SDS011;4694;52.464;13.480;2022-07-04T01:43:24;3.13;;;2.60;;
9310;SDS011;4694;52.464;13.480;2022-07-04T01:45:51;2.10;;;2.00;;
9310;SDS011;4694;52.464;13.480;2022-07-04T01:48:17;3.50;;;2.25;;
9310;SDS011;4694;52.464;13.480;2022-07-04T01:50:45;3.53;;;1.67;;
9310;SDS011;4694;52.464;13.480;2022-07-04T01:53:12;1.95;;;1.80;;
9310;SDS011;4694;52.464;13.480;2022-07-04T01:55:40;4.47;;;2.15;;
9310;SDS011;4694;52.464;13.480;2022-07-04T01:58:07;4.75;;;2.38;;
9310;SDS011;4694;52.464;13.480;2022-07-04T02:00:34;2.20;;;1.55;;
9310;SDS011;4694;52.464;13.480;2022-07-04T02:03:19;2.60;;;2.40;;
9310;SDS011;4694;52.464;13.480;2022-07-04T02:05:46;2.47;;;2.28;;
9310;SDS011;4694;52.464;13.480;2022-07-04T02:08:13;3.10;;;2.80;;
9310;SDS011;4694;52.464;13.480;2022-07-04T02:10:41;4.57;;;2.83;;
9310;SDS011;4694;52.464;13.480;2022-07-04T02:13:10;4.68;;;2.20;;
9310;SDS011;4694;52.464;13.480;2022-07-04T02:15:37;2.58;;;2.00;;
9310;SDS011;4694;52.464;13.480;2022-07-04T02:18:06;3.15;;;2.28;;
9310;SDS011;4694;52.464;13.480;2022-07-04T02:20:34;2.63;;;2.38;;
9310;SDS011;4694;52.464;13.480;2022-07-04T02:23:02;2.58;;;2.47;;
9310;SDS011;4694;52.464;13.480;2022-07-04T02:25:29;3.63;;;2.90;;
9310;SDS011;4694;52.464;13.480;2022-07-04T02:27:58;3.03;;;2.83;;
9310;SDS011;4694;52.464;13.480;2022-07-04T02:30:25;4.22;;;3.63;;
9310;SDS011;4694;52.464;13.480;2022-07-04T02:32:53;3.40;;;3.13;;
9310;SDS011;4694;52.464;13.480;2022-07-04T02:35:21;4.15;;;3.65;;
9310;SDS011;4694;52.464;13.480;2022-07-04T02:37:50;4.35;;;3.80;;
9310;SDS011;4694;52.464;13.480;2022-07-04T02:40:17;4.43;;;3.78;;
9310;SDS011;4694;52.464;13.480;2022-07-04T02:42:45;4.57;;;4.18;;
9310;SDS011;4694;52.464;13.480;2022-07-04T02:45:13;4.28;;;3.88;;
9310;SDS011;4694;52.464;13.480;2022-07-04T02:47:40;6.65;;;4.50;;
9310;SDS011;4694;52.464;13.480;2022-07-04T02:50:10;5.60;;;5.10;;
9310;SDS011;4694;52.464;13.480;2022-07-04T02:52:38;5.53;;;5.03;;
9310;SDS011;4694;52.464;13.480;2022-07-04T02:55:05;6.05;;;5.45;;
9310;SDS011;4694;52.464;13.480;2022-07-04T02:57:33;6.78;;;5.03;;
9310;SDS011;4694;52.464;13.480;2022-07-04T03:00:02;8.68;;;6.00;;
9310;SDS011;4694;52.464;13.480;2022-07-04T03:02:31;6.38;;;5.82;;
9310;SDS011;4694;52.464;13.480;2022-07-04T03:04:58;8.52;;;5.70;;
9310;SDS011;4694;52.464;13.480;2022-07-04T03:07:26;6.88;;;6.28;;
9310;SDS011;4694;52.464;13.480;2022-07-04T03:09:53;6.28;;;5.57;;
9310;SDS011;4694;52.464;13.480;2022-07-04T03:12:19;8.07;;;5.45;;
9310;SDS011;4694;52.464;13.480;2022-07-04T03:14:46;10.18;;;6.50;;
9310;SDS011;4694;52.464;13.480;2022-07-04T03:17:13;8.30;;;7.55;;
9310;SDS011;4694;52.464;13.480;2022-07-04T03:19:42;7.13;;;6.40;;
9310;SDS011;4694;52.464;13.480;2022-07-04T03:22:09;6.22;;;5.63;;
9310;SDS011;4694;52.464;13.480;2022-07-04T03:24:35;6.18;;;5.45;;
9310;SDS011;4694;52.464;13.480;2022-07-04T03:27:03;7.47;;;6.82;;
9310;SDS011;4694;52.464;13.480;2022-07-04T03:29:30;8.85;;;6.18;;
9310;SDS011;4694;52.464;13.480;2022-07-04T03:31:57;9.25;;;6.70;;
9310;SDS011;4694;52.464;13.480;2022-07-04T03:34:24;7.88;;;7.03;;
9310;SDS011;4694;52.464;13.480;2022-07-04T03:36:53;8.45;;;6.38;;
9310;SDS011;4694;52.464;13.480;2022-07-04T03:39:20;6.82;;;6.13;;
9310;SDS011;4694;52.464;13.480;2022-07-04T03:41:49;7.55;;;6.72;;
9310;SDS011;4694;52.464;13.480;2022-07-04T03:44:16;9.90;;;7.10;;
9310;SDS011;4694;52.464;13.480;2022-07-04T03:46:43;8.43;;;7.63;;
9310;SDS011;4694;52.464;13.480;2022-07-04T03:49:12;8.38;;;6.80;;
9310;SDS011;4694;52.464;13.480;2022-07-04T03:51:40;7.55;;;6.80;;
9310;SDS011;4694;52.464;13.480;2022-07-04T03:54:10;7.65;;;6.88;;
9310;SDS011;4694;52.464;13.480;2022-07-04T03:56:37;9.18;;;7.70;;
9310;SDS011;4694;52.464;13.480;2022-07-04T03:59:05;9.80;;;7.80;;
9310;SDS011;4694;52.464;13.480;2022-07-04T04:01:33;9.93;;;7.30;;
9310;SDS011;4694;52.464;13.480;2022-07-04T04:04:00;8.35;;;7.50;;
9310;SDS011;4694;52.464;13.480;2022-07-04T04:06:53;9.50;;;7.30;;
9310;SDS011;4694;52.464;13.480;2022-07-04T04:09:20;8.55;;;7.60;;
9310;SDS011;4694;52.464;13.480;2022-07-04T04:11:50;8.32;;;7.53;;
9310;SDS011;4694;52.464;13.480;2022-07-04T04:14:18;10.20;;;8.98;;
9310;SDS011;4694;52.464;13.480;2022-07-04T04:16:45;15.48;;;8.48;;
9310;SDS011;4694;52.464;13.480;2022-07-04T04:19:12;11.57;;;7.60;;
9310;SDS011;4694;52.464;13.480;2022-07-04T04:21:39;7.68;;;6.88;;
9310;SDS011;4694;52.464;13.480;2022-07-04T04:24:06;7.95;;;6.50;;
9310;SDS011;4694;52.464;13.480;2022-07-04T04:26:34;9.05;;;6.40;;
9310;SDS011;4694;52.464;13.480;2022-07-04T04:29:01;10.45;;;8.75;;
9310;SDS011;4694;52.464;13.480;2022-07-04T04:31:28;8.50;;;7.47;;
9310;SDS011;4694;52.464;13.480;2022-07-04T04:33:56;8.75;;;6.78;;
9310;SDS011;4694;52.464;13.480;2022-07-04T04:36:22;10.93;;;6.32;;
9310;SDS011;4694;52.464;13.480;2022-07-04T04:38:49;6.88;;;5.28;;
9310;SDS011;4694;52.464;13.480;2022-07-04T04:41:16;7.45;;;6.75;;
9310;SDS011;4694;52.464;13.480;2022-07-04T04:43:51;5.85;;;5.13;;
9310;SDS011;4694;52.464;13.480;2022-07-04T04:46:18;11.18;;;3.33;;
9310;SDS011;4694;52.464;13.480;2022-07-04T04:48:45;5.13;;;4.10;;
9310;SDS011;4694;52.464;13.480;2022-07-04T04:51:11;5.78;;;3.55;;
9310;SDS011;4694;52.464;13.480;2022-07-04T04:53:38;5.80;;;4.18;;
9310;SDS011;4694;52.464;13.480;2022-07-04T04:56:05;7.03;;;5.53;;
9310;SDS011;4694;52.464;13.480;2022-07-04T04:58:31;5.47;;;4.00;;
9310;SDS011;4694;52.464;13.480;2022-07-04T05:00:59;7.90;;;5.00;;
9310;SDS011;4694;52.464;13.480;2022-07-04T05:03:27;8.55;;;6.50;;
9310;SDS011;4694;52.464;13.480;2022-07-04T05:05:54;6.22;;;5.30;;
9310;SDS011;4694;52.464;13.480;2022-07-04T05:08:21;5.95;;;5.43;;
9310;SDS011;4694;52.464;13.480;2022-07-04T05:10:49;7.38;;;6.28;;
9310;SDS011;4694;52.464;13.480;2022-07-04T05:13:16;6.47;;;5.40;;
9310;SDS011;4694;52.464;13.480;2022-07-04T05:15:42;5.90;;;5.03;;
9310;SDS011;4694;52.464;13.480;2022-07-04T05:18:10;7.70;;;6.35;;
9310;SDS011;4694;52.464;13.480;2022-07-04T05:20:37;11.50;;;5.30;;
9310;SDS011;4694;52.464;13.480;2022-07-04T05:23:05;6.20;;;5.53;;
9310;SDS011;4694;52.464;13.480;2022-07-04T05:25:32;6.57;;;5.40;;
9310;SDS011;4694;52.464;13.480;2022-07-04T05:27:59;6.60;;;4.65;;
9310;SDS011;4694;52.464;13.480;2022-07-04T05:30:25;10.07;;;5.53;;
9310;SDS011;4694;52.464;13.480;2022-07-04T05:32:52;5.82;;;5.32;;
9310;SDS011;4694;52.464;13.480;2022-07-04T05:35:20;7.22;;;5.50;;
9310;SDS011;4694;52.464;13.480;2022-07-04T05:37:47;6.65;;;4.93;;
9310;SDS011;4694;52.464;13.480;2022-07-04T05:40:14;6.45;;;4.63;;
9310;SDS011;4694;52.464;13.480;2022-07-04T05:42:41;5.43;;;4.18;;
9310;SDS011;4694;52.464;13.480;2022-07-04T05:45:08;4.53;;;4.13;;
9310;SDS011;4694;52.464;13.480;2022-07-04T05:47:35;5.00;;;3.63;;
9310;SDS011;4694;52.464;13.480;2022-07-04T05:50:02;6.53;;;3.35;;
9310;SDS011;4694;52.464;13.480;2022-07-04T05:52:30;5.18;;;3.33;;
9310;SDS011;4694;52.464;13.480;2022-07-04T05:54:57;3.90;;;3.15;;
9310;SDS011;4694;52.464;13.480;2022-07-04T05:57:24;3.03;;;2.75;;
9310;SDS011;4694;52.464;13.480;2022-07-04T05:59:52;3.40;;;2.47;;
9310;SDS011;4694;52.464;13.480;2022-07-04T06:02:19;7.03;;;2.85;;
9310;SDS011;4694;52.464;13.480;2022-07-04T06:04:46;5.03;;;2.60;;
9310;SDS011;4694;52.464;13.480;2022-07-04T06:07:13;3.80;;;2.17;;
9310;SDS011;4694;52.464;13.480;2022-07-04T06:09:41;4.45;;;2.55;;
9310;SDS011;4694;52.464;13.480;2022-07-04T06:12:09;2.30;;;2.10;;
9310;SDS011;4694;52.464;13.480;2022-07-04T06:14:36;3.63;;;2.72;;
9310;SDS011;4694;52.464;13.480;2022-07-04T06:17:03;1.92;;;1.65;;
9310;SDS011;4694;52.464;13.480;2022-07-04T06:19:30;2.78;;;2.05;;
9310;SDS011;4694;52.464;13.480;2022-07-04T06:21:57;3.45;;;2.10;;
9310;SDS011;4694;52.464;13.480;2022-07-04T06:24:24;2.45;;;2.10;;
9310;SDS011;4694;52.464;13.480;2022-07-04T06:26:52;2.05;;;1.95;;
9310;SDS011;4694;52.464;13.480;2022-07-04T06:29:18;4.07;;;2.15;;
9310;SDS011;4694;52.464;13.480;2022-07-04T06:31:45;4.63;;;2.05;;
9310;SDS011;4694;52.464;13.480;2022-07-04T06:34:12;2.03;;;1.40;;
9310;SDS011;4694;52.464;13.480;2022-07-04T06:36:56;2.05;;;1.60;;
9310;SDS011;4694;52.464;13.480;2022-07-04T06:39:23;2.40;;;1.35;;
9310;SDS011;4694;52.464;13.480;2022-07-04T06:41:49;1.52;;;1.40;;
9310;SDS011;4694;52.464;13.480;2022-07-04T06:44:17;1.23;;;1.13;;
9310;SDS011;4694;52.464;13.480;2022-07-04T06:46:44;1.17;;;1.08;;
9310;SDS011;4694;52.464;13.480;2022-07-04T06:49:11;3.03;;;1.45;;
9310;SDS011;4694;52.464;13.480;2022-07-04T06:51:37;2.25;;;1.13;;
9310;SDS011;4694;52.464;13.480;2022-07-04T06:54:04;4.15;;;0.90;;
9310;SDS011;4694;52.464;13.480;2022-07-04T06:56:31;2.28;;;0.90;;
9310;SDS011;4694;52.464;13.480;2022-07-04T06:58:59;1.95;;;1.17;;
9310;SDS011;4694;52.464;13.480;2022-07-04T07:01:27;5.60;;;1.88;;
9310;SDS011;4694;52.464;13.480;2022-07-04T07:03:54;1.10;;;0.98;;
9310;SDS011;4694;52.464;13.480;2022-07-04T07:06:21;1.80;;;0.55;;
9310;SDS011;4694;52.464;13.480;2022-07-04T07:08:48;2.90;;;0.60;;
9310;SDS011;4694;52.464;13.480;2022-07-04T07:11:15;2.22;;;0.80;;
9310;SDS011;4694;52.464;13.480;2022-07-04T07:13:45;1.73;;;0.90;;
9310;SDS011;4694;52.464;13.480;2022-07-04T07:16:14;2.20;;;0.68;;
9310;SDS011;4694;52.464;13.480;2022-07-04T07:18:41;1.00;;;0.60;;
9310;SDS011;4694;52.464;13.480;2022-07-04T07:21:08;1.98;;;0.73;;
9310;SDS011;4694;52.464;13.480;2022-07-04T07:23:37;2.80;;;1.55;;
9310;SDS011;4694;52.464;13.480;2022-07-04T07:26:04;2.45;;;0.90;;
9310;SDS011;4694;52.464;13.480;2022-07-04T07:28:31;7.30;;;1.08;;
9310;SDS011;4694;52.464;13.480;2022-07-04T07:30:58;0.60;;;0.50;;
9310;SDS011;4694;52.464;13.480;2022-07-04T07:33:26;0.80;;;0.43;;
9310;SDS011;4694;52.464;13.480;2022-07-04T07:35:53;2.05;;;0.68;;
9310;SDS011;4694;52.464;13.480;2022-07-04T07:38:20;2.20;;;0.88;;
9310;SDS011;4694;52.464;13.480;2022-07-04T07:40:47;2.13;;;0.63;;
9310;SDS011;4694;52.464;13.480;2022-07-04T07:43:14;3.47;;;0.70;;
9310;SDS011;4694;52.464;13.480;2022-07-04T07:45:41;0.90;;;0.63;;
9310;SDS011;4694;52.464;13.480;2022-07-04T07:48:08;1.85;;;0.88;;
9310;SDS011;4694;52.464;13.480;2022-07-04T07:50:36;2.15;;;0.60;;
9310;SDS011;4694;52.464;13.480;2022-07-04T07:53:03;1.15;;;0.40;;
9310;SDS011;4694;52.464;13.480;2022-07-04T07:55:30;0.90;;;0.40;;
9310;SDS011;4694;52.464;13.480;2022-07-04T07:57:57;1.48;;;0.45;;
9310;SDS011;4694;52.464;13.480;2022-07-04T08:00:25;1.17;;;0.40;;
9310;SDS011;4694;52.464;13.480;2022-07-04T08:02:51;1.23;;;0.60;;
9310;SDS011;4694;52.464;13.480;2022-07-04T08:05:38;2.47;;;0.60;;
9310;SDS011;4694;52.464;13.480;2022-07-04T08:08:05;1.67;;;0.60;;
9310;SDS011;4694;52.464;13.480;2022-07-04T08:10:32;5.05;;;0.40;;
9310;SDS011;4694;52.464;13.480;2022-07-04T08:12:59;1.88;;;0.32;;
9310;SDS011;4694;52.464;13.480;2022-07-04T08:15:25;0.95;;;0.60;;
9310;SDS011;4694;52.464;13.480;2022-07-04T08:17:52;1.45;;;0.50;;
9310;SDS011;4694;52.464;13.480;2022-07-04T08:20:19;2.72;;;0.45;;
9310;SDS011;4694;52.464;13.480;2022-07-04T08:22:47;0.70;;;0.50;;
9310;SDS011;4694;52.464;13.480;2022-07-04T08:25:13;1.63;;;0.70;;
9310;SDS011;4694;52.464;13.480;2022-07-04T08:27:42;0.68;;;0.40;;
9310;SDS011;4694;52.464;13.480;2022-07-04T08:30:09;1.10;;;0.47;;
9310;SDS011;4694;52.464;13.480;2022-07-04T08:32:36;4.20;;;2.55;;
9310;SDS011;4694;52.464;13.480;2022-07-04T08:35:03;0.95;;;0.47;;
9310;SDS011;4694;52.464;13.480;2022-07-04T08:37:30;0.80;;;0.38;;
9310;SDS011;4694;52.464;13.480;2022-07-04T08:39:58;2.08;;;0.38;;
9310;SDS011;4694;52.464;13.480;2022-07-04T08:42:24;2.30;;;0.47;;
9310;SDS011;4694;52.464;13.480;2022-07-04T08:44:53;1.13;;;0.32;;
9310;SDS011;4694;52.464;13.480;2022-07-04T08:47:21;2.45;;;0.40;;
9310;SDS011;4694;52.464;13.480;2022-07-04T08:49:51;3.92;;;0.50;;
9310;SDS011;4694;52.464;13.480;2022-07-04T08:52:21;0.65;;;0.30;;
9310;SDS011;4694;52.464;13.480;2022-07-04T08:54:51;2.45;;;0.93;;
9310;SDS011;4694;52.464;13.480;2022-07-04T08:57:37;4.00;;;0.40;;
9310;SDS011;4694;52.464;13.480;2022-07-04T09:00:21;2.65;;;0.43;;
9310;SDS011;4694;52.464;13.480;2022-07-04T09:02:48;2.97;;;0.50;;
9310;SDS011;4694;52.464;13.480;2022-07-04T09:05:15;1.05;;;0.30;;
9310;SDS011;4694;52.464;13.480;2022-07-04T09:07:43;5.53;;;0.45;;
9310;SDS011;4694;52.464;13.480;2022-07-04T09:10:10;1.80;;;0.50;;
9310;SDS011;4694;52.464;13.480;2022-07-04T09:12:39;2.85;;;0.60;;
9310;SDS011;4694;52.464;13.480;2022-07-04T09:15:05;1.42;;;0.35;;
9310;SDS011;4694;52.464;13.480;2022-07-04T09:17:33;1.17;;;0.50;;
9310;SDS011;4694;52.464;13.480;2022-07-04T09:20:10;3.50;;;0.43;;
9310;SDS011;4694;52.464;13.480;2022-07-04T09:22:40;2.83;;;0.40;;
9310;SDS011;4694;52.464;13.480;2022-07-04T09:25:07;1.58;;;0.40;;
9310;SDS011;4694;52.464;13.480;2022-07-04T09:27:39;1.20;;;0.55;;
9310;SDS011;4694;52.464;13.480;2022-07-04T09:30:07;0.40;;;0.32;;
9310;SDS011;4694;52.464;13.480;2022-07-04T09:32:35;2.15;;;0.30;;
9310;SDS011;4694;52.464;13.480;2022-07-04T09:35:03;2.45;;;0.50;;
9310;SDS011;4694;52.464;13.480;2022-07-04T09:37:35;1.35;;;0.82;;
9310;SDS011;4694;52.464;13.480;2022-07-04T09:40:04;1.45;;;0.40;;
9310;SDS011;4694;52.464;13.480;2022-07-04T09:42:36;1.25;;;0.50;;
9310;SDS011;4694;52.464;13.480;2022-07-04T09:45:06;2.45;;;0.47;;
9310;SDS011;4694;52.464;13.480;2022-07-04T09:47:34;1.30;;;0.30;;
9310;SDS011;4694;52.464;13.480;2022-07-04T09:50:03;2.65;;;1.20;;
9310;SDS011;4694;52.464;13.480;2022-07-04T09:52:32;1.35;;;0.45;;
9310;SDS011;4694;52.464;13.480;2022-07-04T09:55:09;2.53;;;0.50;;
9310;SDS011;4694;52.464;13.480;2022-07-04T09:57:36;0.82;;;0.35;;
9310;SDS011;4694;52.464;13.480;2022-07-04T10:00:16;1.63;;;0.50;;
9310;SDS011;4694;52.464;13.480;2022-07-04T10:02:45;2.03;;;0.55;;
9310;SDS011;4694;52.464;13.480;2022-07-04T10:05:16;0.60;;;0.40;;
9310;SDS011;4694;52.464;13.480;2022-07-04T10:07:47;2.35;;;0.65;;
9310;SDS011;4694;52.464;13.480;2022-07-04T10:10:22;3.03;;;0.93;;
9310;SDS011;4694;52.464;13.480;2022-07-04T10:12:51;2.72;;;0.50;;
9310;SDS011;4694;52.464;13.480;2022-07-04T10:15:20;1.88;;;0.63;;
9310;SDS011;4694;52.464;13.480;2022-07-04T10:17:47;2.03;;;0.40;;
9310;SDS011;4694;52.464;13.480;2022-07-04T10:20:14;5.68;;;0.60;;
9310;SDS011;4694;52.464;13.480;2022-07-04T10:22:42;6.50;;;0.90;;
9310;SDS011;4694;52.464;13.480;2022-07-04T10:25:09;1.13;;;0.50;;
9310;SDS011;4694;52.464;13.480;2022-07-04T10:27:36;1.50;;;0.50;;
9310;SDS011;4694;52.464;13.480;2022-07-04T10:30:04;1.65;;;0.60;;
9310;SDS011;4694;52.464;13.480;2022-07-04T10:32:36;0.80;;;0.43;;
9310;SDS011;4694;52.464;13.480;2022-07-04T10:35:04;0.95;;;0.43;;
9310;SDS011;4694;52.464;13.480;2022-07-04T10:40:41;1.30;;;0.38;;
9310;SDS011;4694;52.464;13.480;2022-07-04T10:46:47;0.93;;;0.50;;
9310;SDS011;4694;52.464;13.480;2022-07-04T10:49:31;1.70;;;0.50;;
9310;SDS011;4694;52.464;13.480;2022-07-04T10:52:10;2.35;;;0.63;;
9310;SDS011;4694;52.464;13.480;2022-07-04T10:54:38;2.83;;;0.50;;
9310;SDS011;4694;52.464;13.480;2022-07-04T10:57:10;1.23;;;0.40;;
9310;SDS011;4694;52.464;13.480;2022-07-04T10:59:37;1.08;;;0.40;;
9310;SDS011;4694;52.464;13.480;2022-07-04T11:02:21;0.80;;;0.30;;
9310;SDS011;4694;52.464;13.480;2022-07-04T11:05:04;0.60;;;0.30;;
9310;SDS011;4694;52.464;13.480;2022-07-04T11:10:21;2.15;;;0.60;;
9310;SDS011;4694;52.464;13.480;2022-07-04T11:15:57;1.08;;;0.40;;
9310;SDS011;4694;52.464;13.480;2022-07-04T11:18:25;2.78;;;0.70;;
9310;SDS011;4694;52.464;13.480;2022-07-04T11:20:55;3.05;;;0.55;;
9310;SDS011;4694;52.464;13.480;2022-07-04T11:23:22;3.25;;;0.40;;
9310;SDS011;4694;52.464;13.480;2022-07-04T11:25:49;2.55;;;0.45;;
9310;SDS011;4694;52.464;13.480;2022-07-04T11:28:18;0.50;;;0.50;;
9310;SDS011;4694;52.464;13.480;2022-07-04T11:30:47;2.92;;;0.32;;
9310;SDS011;4694;52.464;13.480;2022-07-04T11:33:16;2.92;;;0.98;;
9310;SDS011;4694;52.464;13.480;2022-07-04T11:35:44;3.80;;;0.50;;
9310;SDS011;4694;52.464;13.480;2022-07-04T11:38:45;1.85;;;1.17;;
9310;SDS011;4694;52.464;13.480;2022-07-04T11:41:15;3.33;;;0.50;;
9310;SDS011;4694;52.464;13.480;2022-07-04T11:44:02;1.20;;;0.40;;
9310;SDS011;4694;52.464;13.480;2022-07-04T11:46:47;5.28;;;0.50;;
9310;SDS011;4694;52.464;13.480;2022-07-04T11:49:14;1.05;;;0.50;;
9310;SDS011;4694;52.464;13.480;2022-07-04T11:51:43;0.68;;;0.50;;
9310;SDS011;4694;52.464;13.480;2022-07-04T11:54:11;2.58;;;0.50;;
9310;SDS011;4694;52.464;13.480;2022-07-04T11:56:38;2.17;;;1.05;;
9310;SDS011;4694;52.464;13.480;2022-07-04T11:59:11;2.00;;;0.60;;
9310;SDS011;4694;52.464;13.480;2022-07-04T12:01:39;1.23;;;0.50;;
9310;SDS011;4694;52.464;13.480;2022-07-04T12:04:14;0.68;;;0.38;;
9310;SDS011;4694;52.464;13.480;2022-07-04T12:06:44;0.70;;;0.50;;
9310;SDS011;4694;52.464;13.480;2022-07-04T12:09:11;2.53;;;1.65;;
9310;SDS011;4694;52.464;13.480;2022-07-04T12:11:49;1.50;;;0.40;;
9310;SDS011;4694;52.464;13.480;2022-07-04T12:14:17;1.25;;;0.52;;
9310;SDS011;4694;52.464;13.480;2022-07-04T12:16:44;1.67;;;0.50;;
9310;SDS011;4694;52.464;13.480;2022-07-04T12:19:12;1.73;;;0.57;;
9310;SDS011;4694;52.464;13.480;2022-07-04T12:21:39;0.85;;;0.40;;
9310;SDS011;4694;52.464;13.480;2022-07-04T12:24:10;0.40;;;0.30;;
9310;SDS011;4694;52.464;13.480;2022-07-04T12:26:46;1.58;;;0.43;;
9310;SDS011;4694;52.464;13.480;2022-07-04T12:29:20;1.73;;;0.50;;
9310;SDS011;4694;52.464;13.480;2022-07-04T12:31:50;0.60;;;0.30;;
9310;SDS011;4694;52.464;13.480;2022-07-04T12:36:47;0.45;;;0.38;;
9310;SDS011;4694;52.464;13.480;2022-07-04T12:39:27;1.05;;;0.40;;
9310;SDS011;4694;52.464;13.480;2022-07-04T12:44:31;0.50;;;0.40;;
9310;SDS011;4694;52.464;13.480;2022-07-04T12:46:59;0.98;;;0.60;;
9310;SDS011;4694;52.464;13.480;2022-07-04T12:49:26;1.13;;;0.70;;
9310;SDS011;4694;52.464;13.480;2022-07-04T12:52:02;1.42;;;0.38;;
9310;SDS011;4694;52.464;13.480;2022-07-04T12:54:34;1.92;;;0.30;;
9310;SDS011;4694;52.464;13.480;2022-07-04T12:57:09;1.00;;;0.32;;
9310;SDS011;4694;52.464;13.480;2022-07-04T12:59:37;3.60;;;0.45;;
9310;SDS011;4694;52.464;13.480;2022-07-04T13:02:04;1.40;;;0.40;;
9310;SDS011;4694;52.464;13.480;2022-07-04T13:04:32;0.77;;;0.60;;
9310;SDS011;4694;52.464;13.480;2022-07-04T13:06:59;2.05;;;0.40;;
9310;SDS011;4694;52.464;13.480;2022-07-04T13:09:36;0.85;;;0.40;;
9310;SDS011;4694;52.464;13.480;2022-07-04T13:12:03;1.95;;;0.30;;
9310;SDS011;4694;52.464;13.480;2022-07-04T13:14:48;0.50;;;0.40;;
9310;SDS011;4694;52.464;13.480;2022-07-04T13:17:15;1.67;;;0.40;;
9310;SDS011;4694;52.464;13.480;2022-07-04T13:19:41;3.80;;;0.50;;
9310;SDS011;4694;52.464;13.480;2022-07-04T13:22:08;0.60;;;0.45;;
9310;SDS011;4694;52.464;13.480;2022-07-04T13:24:41;0.50;;;0.25;;
9310;SDS011;4694;52.464;13.480;2022-07-04T13:27:07;1.00;;;0.50;;
9310;SDS011;4694;52.464;13.480;2022-07-04T13:29:34;1.13;;;0.38;;
9310;SDS011;4694;52.464;13.480;2022-07-04T13:32:02;1.05;;;0.30;;
9310;SDS011;4694;52.464;13.480;2022-07-04T13:34:29;1.25;;;0.40;;
9310;SDS011;4694;52.464;13.480;2022-07-04T13:36:57;0.60;;;0.35;;
9310;SDS011;4694;52.464;13.480;2022-07-04T13:39:25;2.10;;;0.50;;
9310;SDS011;4694;52.464;13.480;2022-07-04T13:41:53;1.10;;;0.47;;
9310;SDS011;4694;52.464;13.480;2022-07-04T13:44:22;3.00;;;0.45;;
9310;SDS011;4694;52.464;13.480;2022-07-04T13:46:49;11.40;;;1.25;;
9310;SDS011;4694;52.464;13.480;2022-07-04T13:49:16;0.65;;;0.40;;
9310;SDS011;4694;52.464;13.480;2022-07-04T13:51:43;1.65;;;0.65;;
9310;SDS011;4694;52.464;13.480;2022-07-04T13:54:10;1.60;;;0.30;;
9310;SDS011;4694;52.464;13.480;2022-07-04T13:56:37;1.95;;;0.35;;
9310;SDS011;4694;52.464;13.480;2022-07-04T13:59:07;0.40;;;0.40;;
9310;SDS011;4694;52.464;13.480;2022-07-04T14:01:34;1.33;;;0.30;;
9310;SDS011;4694;52.464;13.480;2022-07-04T14:04:01;1.90;;;0.32;;
9310;SDS011;4694;52.464;13.480;2022-07-04T14:06:28;0.70;;;0.35;;
9310;SDS011;4694;52.464;13.480;2022-07-04T14:08:54;0.98;;;0.65;;
9310;SDS011;4694;52.464;13.480;2022-07-04T14:11:21;1.13;;;0.60;;
9310;SDS011;4694;52.464;13.480;2022-07-04T14:13:48;1.77;;;0.50;;
9310;SDS011;4694;52.464;13.480;2022-07-04T14:16:17;0.73;;;0.60;;
9310;SDS011;4694;52.464;13.480;2022-07-04T14:18:43;0.70;;;0.40;;
9310;SDS011;4694;52.464;13.480;2022-07-04T14:21:11;4.38;;;0.50;;
9310;SDS011;4694;52.464;13.480;2022-07-04T14:23:38;3.03;;;0.47;;
9310;SDS011;4694;52.464;13.480;2022-07-04T14:26:06;1.20;;;0.40;;
9310;SDS011;4694;52.464;13.480;2022-07-04T14:28:37;2.22;;;0.40;;
9310;SDS011;4694;52.464;13.480;2022-07-04T14:31:04;2.83;;;0.50;;
9310;SDS011;4694;52.464;13.480;2022-07-04T14:33:32;1.23;;;0.55;;
9310;SDS011;4694;52.464;13.480;2022-07-04T14:35:59;0.93;;;0.50;;
9310;SDS011;4694;52.464;13.480;2022-07-04T14:38:26;2.97;;;1.05;;
9310;SDS011;4694;52.464;13.480;2022-07-04T14:40:53;2.28;;;0.52;;
9310;SDS011;4694;52.464;13.480;2022-07-04T14:43:20;1.20;;;0.40;;
9310;SDS011;4694;52.464;13.480;2022-07-04T14:45:47;1.75;;;0.50;;
9310;SDS011;4694;52.464;13.480;2022-07-04T14:48:13;0.45;;;0.40;;
9310;SDS011;4694;52.464;13.480;2022-07-04T14:50:41;2.08;;;0.45;;
9310;SDS011;4694;52.464;13.480;2022-07-04T14:53:08;0.30;;;0.30;;
9310;SDS011;4694;52.464;13.480;2022-07-04T14:55:35;0.57;;;0.30;;
9310;SDS011;4694;52.464;13.480;2022-07-04T14:58:04;0.50;;;0.30;;
9310;SDS011;4694;52.464;13.480;2022-07-04T15:00:31;1.00;;;0.63;;
9310;SDS011;4694;52.464;13.480;2022-07-04T15:02:57;1.63;;;0.75;;
9310;SDS011;4694;52.464;13.480;2022-07-04T15:05:24;0.45;;;0.30;;
9310;SDS011;4694;52.464;13.480;2022-07-04T15:07:52;0.40;;;0.30;;
9310;SDS011;4694;52.464;13.480;2022-07-04T15:10:20;1.40;;;0.63;;
9310;SDS011;4694;52.464;13.480;2022-07-04T15:12:47;1.52;;;0.65;;
9310;SDS011;4694;52.464;13.480;2022-07-04T15:15:14;1.00;;;0.50;;
9310;SDS011;4694;52.464;13.480;2022-07-04T15:17:42;0.30;;;0.30;;
9310;SDS011;4694;52.464;13.480;2022-07-04T15:20:09;1.75;;;0.50;;
9310;SDS011;4694;52.464;13.480;2022-07-04T15:22:56;1.38;;;0.50;;
9310;SDS011;4694;52.464;13.480;2022-07-04T15:25:40;1.65;;;0.40;;
9310;SDS011;4694;52.464;13.480;2022-07-04T15:28:06;2.05;;;0.45;;